KONA/ONA METAR and TAF weather

Enter ICAO airport designator
Station Type Date Time Source
KONA METAR 2019/04/25 01:56 UTC NOAA

KONA 250156Z AUTO 15005KT 10SM CLR 15/08 A2977 RMK AO2


Station Type Date Time Source
KONA Decoded METAR 2019/04/25 01:56 UTC NOAA

Winona, Winona Municipal Airport-Max Conrad Field, MN, United States (KONA) 44-05N 091-42W
Apr 24, 2019 - 09:56 PM EDT / 2019.04.25 0156 UTC
Wind: from the SSE (150 degrees) at 6 MPH (5 KT):0
Visibility: 10 mile(s):0
Sky conditions: clear
Temperature: 59 F (15 C)
Dew Point: 46 F (8 C)
Relative Humidity: 62%
Pressure (altimeter): 29.77 in. Hg (1008 hPa)
ob: KONA 250156Z AUTO 15005KT 10SM CLR 15/08 A2977 RMK AO2
cycle: 2

Station Type Date Time Source
KONA TAF UTC NOAA

Error!

Example: see airport list